createdAt,value
2018-05-10T00:04:33.461Z,18.80
2018-05-10T00:09:38.996Z,18.80
2018-05-10T00:14:41.622Z,18.80
2018-05-10T00:19:46.024Z,18.70
2018-05-10T00:24:48.601Z,18.60
2018-05-10T00:29:51.132Z,18.60
2018-05-10T00:34:54.612Z,18.70
2018-05-10T00:39:57.745Z,18.70
2018-05-10T00:45:01.051Z,18.40
2018-05-10T00:50:05.310Z,18.50
2018-05-10T00:55:07.968Z,18.40
2018-05-10T01:00:12.245Z,18.50
2018-05-10T01:05:14.845Z,18.50
2018-05-10T01:10:17.420Z,18.50
2018-05-10T01:15:22.019Z,18.40
2018-05-10T01:20:24.609Z,18.30
2018-05-10T01:25:28.026Z,18.30
2018-05-10T01:30:30.607Z,18.20
2018-05-10T01:41:08.637Z,18.20
2018-05-10T01:46:11.972Z,18.10
2018-05-10T01:51:15.452Z,18.00
2018-05-10T01:56:18.749Z,18.00
2018-05-10T02:01:22.167Z,17.90
2018-05-10T02:06:24.700Z,18.00
2018-05-10T02:11:27.222Z,17.90
2018-05-10T02:16:29.832Z,17.90
2018-05-10T02:21:33.299Z,18.00
2018-05-10T02:26:35.860Z,17.90
2018-05-10T02:31:38.375Z,17.90
2018-05-10T02:36:41.665Z,17.70
2018-05-10T02:41:44.417Z,17.60
2018-05-10T02:46:46.972Z,17.50
2018-05-10T02:51:52.206Z,17.30
2018-05-10T02:56:54.770Z,17.20
2018-05-10T03:01:57.309Z,17.20
2018-05-10T03:07:00.600Z,17.10
2018-05-10T03:12:03.142Z,17.00
2018-05-10T03:17:05.684Z,17.10
2018-05-10T03:22:08.216Z,16.90
2018-05-10T03:27:11.492Z,16.80
2018-05-10T03:32:14.016Z,16.70
2018-05-10T03:37:16.578Z,16.70
2018-05-10T03:42:19.132Z,16.80
2018-05-10T03:47:21.661Z,16.70
2018-05-10T03:52:24.231Z,16.70
2018-05-10T03:57:26.756Z,16.60
2018-05-10T04:08:34.048Z,16.80
2018-05-10T04:13:36.584Z,16.80
2018-05-10T04:18:39.896Z,17.00
2018-05-10T04:23:43.245Z,17.10
2018-05-10T04:28:45.795Z,17.00
2018-05-10T04:33:50.334Z,17.20
2018-05-10T04:38:53.706Z,17.10
2018-05-10T04:43:57.204Z,17.00
2018-05-10T04:49:00.736Z,17.20
2018-05-10T04:54:03.321Z,17.30
2018-05-10T04:59:05.873Z,17.40
2018-05-10T05:04:09.225Z,17.70
2018-05-10T05:09:11.795Z,17.70
2018-05-10T05:14:15.170Z,18.10
2018-05-10T05:19:17.703Z,18.10
2018-05-10T05:24:20.325Z,18.10
2018-05-10T05:29:22.911Z,18.10
2018-05-10T05:34:26.599Z,18.20
2018-05-10T05:39:29.931Z,18.50
2018-05-10T05:44:34.495Z,18.40
2018-05-10T05:49:37.086Z,18.30
2018-05-10T05:54:39.697Z,18.50
2018-05-10T05:59:42.404Z,18.60
2018-05-10T06:04:45.020Z,18.90
2018-05-10T06:09:49.320Z,19.30
2018-05-10T06:14:51.903Z,19.20
2018-05-10T06:19:55.733Z,19.30
2018-05-10T06:24:58.571Z,19.30
2018-05-10T06:30:01.221Z,19.10
2018-05-10T06:35:03.837Z,18.90
2018-05-10T06:40:06.427Z,18.70
2018-05-10T06:45:09.096Z,18.50
2018-05-10T06:50:11.759Z,18.30
2018-05-10T06:55:14.488Z,18.30
2018-05-10T07:00:17.220Z,18.40
2018-05-10T07:05:19.871Z,18.50
2018-05-10T07:10:22.475Z,18.50
2018-05-10T07:15:25.102Z,18.40
2018-05-10T07:20:27.748Z,18.60
2018-05-10T07:25:30.427Z,18.90
2018-05-10T07:30:33.012Z,19.40
2018-05-10T07:35:35.579Z,19.40
2018-05-10T07:40:38.110Z,19.40
2018-05-10T07:45:40.676Z,19.60
2018-05-10T07:50:43.221Z,19.50
2018-05-10T07:55:45.988Z,19.60
2018-05-10T08:00:49.435Z,19.30
2018-05-10T08:05:52.211Z,19.30
2018-05-10T08:10:54.893Z,19.20
2018-05-10T08:15:57.543Z,19.40
2018-05-10T08:21:00.396Z,19.30
2018-05-10T08:26:03.788Z,20.00
2018-05-10T08:31:06.428Z,20.00
2018-05-10T08:36:09.126Z,20.40
2018-05-10T08:41:11.793Z,20.60
2018-05-10T08:46:15.166Z,20.90
2018-05-10T08:51:17.728Z,20.90
2018-05-10T08:56:21.104Z,20.20
2018-05-10T09:01:23.691Z,20.10
2018-05-10T09:06:27.260Z,20.70
2018-05-10T09:11:30.658Z,20.60
2018-05-10T09:16:33.243Z,20.60
2018-05-10T09:21:35.843Z,20.80
2018-05-10T09:26:39.216Z,20.80
2018-05-10T09:31:41.835Z,20.70
2018-05-10T09:36:44.435Z,20.50
2018-05-10T09:41:47.003Z,20.40
2018-05-10T09:46:49.558Z,20.00
2018-05-10T09:51:52.861Z,20.00
2018-05-10T09:56:56.154Z,19.90
2018-05-10T10:01:58.692Z,19.80
2018-05-10T10:07:01.295Z,19.90
2018-05-10T10:12:03.946Z,20.00
2018-05-10T10:17:06.620Z,20.20
2018-05-10T10:22:09.288Z,20.10
2018-05-10T10:27:11.869Z,20.30
2018-05-10T10:32:14.419Z,20.10
2018-05-10T10:37:16.976Z,20.10
2018-05-10T10:42:19.535Z,20.30
2018-05-10T10:47:22.109Z,20.20
2018-05-10T10:52:27.348Z,20.70
2018-05-10T10:57:38.932Z,20.60
2018-05-10T11:21:46.783Z,23.70
2018-05-10T11:26:49.341Z,23.60
2018-05-10T11:31:54.179Z,23.80
2018-05-10T11:36:57.524Z,23.80
2018-05-10T11:42:00.296Z,23.70
2018-05-10T11:47:05.468Z,23.60
2018-05-10T11:52:08.047Z,23.40
2018-05-10T11:57:12.922Z,23.20
2018-05-10T12:02:17.548Z,22.60
2018-05-10T12:07:21.195Z,22.30
2018-05-10T12:12:23.776Z,21.80
2018-05-10T12:17:26.323Z,21.10
2018-05-10T12:22:28.965Z,21.30
2018-05-10T12:27:31.599Z,21.10
2018-05-10T12:32:35.438Z,21.60
2018-05-10T12:37:38.878Z,21.50
2018-05-10T12:42:43.239Z,21.60
2018-05-10T12:47:45.821Z,22.10
2018-05-10T12:52:48.382Z,22.40
2018-05-10T12:57:50.985Z,23.10
2018-05-10T13:02:53.648Z,22.50
2018-05-10T13:07:58.123Z,22.60
2018-05-10T13:13:00.697Z,22.70
2018-05-10T13:18:04.847Z,22.10
2018-05-10T13:23:08.811Z,21.80
2018-05-10T13:28:11.347Z,21.70
2018-05-10T13:33:16.071Z,21.70
2018-05-10T13:38:18.724Z,21.70
2018-05-10T13:43:21.183Z,21.40
2018-05-10T13:48:25.615Z,21.00
2018-05-10T13:53:31.542Z,20.90
2018-05-10T13:58:34.927Z,20.90
2018-05-10T14:09:11.889Z,21.10
2018-05-10T14:14:14.515Z,21.00
2018-05-10T14:19:17.060Z,20.50
2018-05-10T14:24:19.590Z,20.20
2018-05-10T14:29:22.104Z,20.10
2018-05-10T14:34:24.692Z,19.90
2018-05-10T14:39:27.241Z,19.30
2018-05-10T14:44:29.748Z,18.70
2018-05-10T14:49:33.033Z,18.20
2018-05-10T14:54:39.007Z,18.10
2018-05-10T14:59:41.587Z,18.40
2018-05-10T15:04:44.126Z,18.40
2018-05-10T15:09:47.405Z,18.30
2018-05-10T15:14:49.919Z,18.30
2018-05-10T15:19:52.451Z,18.20
2018-05-10T15:24:57.855Z,17.90
2018-05-10T15:30:00.419Z,17.30
2018-05-10T15:35:03.081Z,16.90
2018-05-10T15:40:06.372Z,16.50
2018-05-10T15:45:10.060Z,16.40
2018-05-10T15:50:12.687Z,16.30
2018-05-10T15:55:17.012Z,16.00
2018-05-10T16:00:19.579Z,16.00
2018-05-10T16:05:24.053Z,16.20
2018-05-10T16:10:26.683Z,16.30
2018-05-10T16:15:29.960Z,16.10
2018-05-10T16:20:34.116Z,16.00
2018-05-10T16:25:37.451Z,16.10
2018-05-10T16:30:40.022Z,16.00
2018-05-10T16:35:43.499Z,16.10
2018-05-10T16:40:46.062Z,16.00
2018-05-10T16:45:48.583Z,16.00
2018-05-10T16:50:51.135Z,16.20
2018-05-10T16:55:53.678Z,16.10
2018-05-10T17:00:56.206Z,15.70
2018-05-10T17:05:59.481Z,15.80
2018-05-10T17:11:02.009Z,15.70
2018-05-10T17:16:04.551Z,15.90
2018-05-10T17:21:07.966Z,16.20
2018-05-10T17:26:15.448Z,16.10
2018-05-10T17:31:18.885Z,16.40
2018-05-10T17:36:21.467Z,16.40
2018-05-10T17:41:24.010Z,16.40
2018-05-10T17:46:26.516Z,16.50
2018-05-10T17:51:33.806Z,16.20
2018-05-10T17:56:36.381Z,16.10
2018-05-10T18:01:39.656Z,16.10
2018-05-10T18:06:42.194Z,16.10
2018-05-10T18:11:48.910Z,16.30
2018-05-10T18:16:51.511Z,16.40
2018-05-10T18:21:54.288Z,16.50
2018-05-10T18:26:59.049Z,16.50
2018-05-10T18:32:03.502Z,16.50
2018-05-10T18:37:06.081Z,16.50
2018-05-10T18:42:09.415Z,16.30
2018-05-10T18:47:11.971Z,16.30
2018-05-10T18:52:20.093Z,16.20
2018-05-10T18:57:23.411Z,16.00
2018-05-10T19:02:26.708Z,16.00
2018-05-10T19:07:35.759Z,15.90
2018-05-10T19:12:38.409Z,15.90
2018-05-10T19:17:46.312Z,15.60
2018-05-10T19:22:49.951Z,15.60
2018-05-10T19:27:54.458Z,15.50
2018-05-10T19:32:57.807Z,15.50
2018-05-10T19:38:00.362Z,15.40
2018-05-10T19:43:03.729Z,15.50
2018-05-10T19:48:08.343Z,15.40
2018-05-10T19:53:10.900Z,15.40
2018-05-10T19:58:20.466Z,15.50
2018-05-10T20:03:25.805Z,15.40
2018-05-10T20:08:28.561Z,15.30
2018-05-10T20:13:31.724Z,15.50
2018-05-10T20:18:36.603Z,15.50
2018-05-10T20:23:39.132Z,15.40
2018-05-10T20:28:42.624Z,15.50
2018-05-10T20:33:45.270Z,15.40
2018-05-10T20:38:48.703Z,15.10
2018-05-10T20:49:09.155Z,14.80
2018-05-10T20:54:11.724Z,14.70
2018-05-10T20:59:15.897Z,15.00
2018-05-10T21:04:19.393Z,14.90
2018-05-10T21:20:16.422Z,15.00
2018-05-10T21:30:52.104Z,15.10
2018-05-10T21:36:00.574Z,15.10
2018-05-10T21:41:03.222Z,15.20
2018-05-10T21:46:05.835Z,15.20
2018-05-10T22:08:41.391Z,15.20
2018-05-10T22:13:47.704Z,15.10
2018-05-10T22:30:56.496Z,15.20
2018-05-10T22:36:03.353Z,15.20
2018-05-10T22:41:08.827Z,15.20
2018-05-10T22:46:12.228Z,15.20
2018-05-10T22:51:15.749Z,15.20
2018-05-10T22:56:20.188Z,15.30
2018-05-10T23:01:23.654Z,15.10
2018-05-10T23:06:26.196Z,15.00
2018-05-10T23:11:28.740Z,15.00
2018-05-10T23:16:31.284Z,14.80
2018-05-10T23:21:35.722Z,14.60
2018-05-10T23:26:38.291Z,14.50
2018-05-10T23:31:40.885Z,14.30
2018-05-10T23:36:43.458Z,14.10
2018-05-10T23:41:46.009Z,13.90
2018-05-10T23:46:48.549Z,13.80
2018-05-10T23:51:51.116Z,13.60
2018-05-10T23:56:53.686Z,13.40
